Kappa, Illinois
Current Conditions -  °F | °C
As of 12:56 PM on Tuesday 21 Oct 2014 (Local Time) from KBMI Reporting Station
Few Clouds Few Clouds  
Wind Chill: 57°   Ceiling: Unl
Heat Index: 57°   Visibility: 10mi
Dew Point: 39°   Wind: 13mph
Humidity: 51%   Direction: 30°NNE
Pressure: 30.17"   Gusts: 17mph
Location:  40.7564°N, 89.0023°W
Report Text: KBMI 211756Z 03011G15KT 10SM FEW050 14/04 A3017 RMK AO2 53001 T01380038 10138 20050 SLP217
Loading
Personal Weather Stations






























Interactive Weather Map
Tropical Storm Tracking
New forecast layout! Learn more

10-Day Weather Forecast

Advertisements
Track Severe Weather on mobile